createdAt,value
2023-01-19T00:00:18.073Z,81
2023-01-19T00:30:16.381Z,81
2023-01-19T01:00:08.588Z,80
2023-01-19T01:30:14.332Z,83
2023-01-19T02:00:05.414Z,82
2023-01-19T02:30:20.891Z,84
2023-01-19T03:00:29.542Z,83
2023-01-19T03:30:03.644Z,84
2023-01-19T04:00:14.222Z,85
2023-01-19T04:30:17.822Z,81
2023-01-19T05:00:05.171Z,83
2023-01-19T05:30:08.735Z,84
2023-01-19T06:00:02.547Z,82
2023-01-19T06:30:22.746Z,78
2023-01-19T07:00:26.618Z,80
2023-01-19T07:30:18.347Z,78
2023-01-19T08:00:18.528Z,79
2023-01-19T08:30:23.535Z,77
2023-01-19T09:00:04.049Z,77
2023-01-19T10:00:24.990Z,75
2023-01-19T10:30:27.280Z,77
2023-01-19T11:00:19.855Z,74
2023-01-19T11:30:09.895Z,77
2023-01-19T12:00:24.335Z,77
2023-01-19T12:30:05.397Z,78
2023-01-19T13:00:08.110Z,79
2023-01-19T13:30:00.583Z,80
2023-01-19T14:00:03.014Z,81
2023-01-19T14:30:11.062Z,80
2023-01-19T15:00:26.262Z,81
2023-01-19T15:30:09.156Z,79
2023-01-19T16:00:30.438Z,79
2023-01-19T16:30:21.636Z,80
2023-01-19T17:00:06.133Z,80
2023-01-19T17:30:16.575Z,82
2023-01-19T18:00:29.100Z,82
2023-01-19T18:30:22.015Z,83
2023-01-19T19:30:12.431Z,81
2023-01-19T20:00:23.458Z,80
2023-01-19T20:30:27.210Z,82
2023-01-19T21:00:08.078Z,82
2023-01-19T21:30:20.574Z,83
2023-01-19T22:00:03.020Z,82
2023-01-19T22:30:16.180Z,81
2023-01-19T23:00:26.993Z,83
